.
WxDataArchive / Data Records for 2012-11-13
2012-11-12 November 2012 2012-11-14

Data Records for Tuesday, 13 November 2012

Time	Temp	Chill	HIndex	Humid	Dewpt	 Wind 	HiWind	WindDir	Rain 	Barom 
-----	----	-----	------	-----	-----	------	------	-------	-----	----- 
00:00	34.0	34.0	34.0	63	22.7	2	6	270	0.00	30.336 
00:05	34.0	34.0	34.0	63	22.7	2	4	248	0.00	30.336 
00:10	34.1	34.1	34.1	62	22.5	2	5	270	0.00	30.336 
00:15	34.1	34.1	34.1	61	22.1	2	4	248	0.00	30.335 
00:20	34.1	34.1	34.1	61	22.1	2	5	248	0.00	30.335 
00:25	34.1	34.1	34.1	61	22.1	2	4	248	0.00	30.335 
00:30	34.1	34.1	34.1	62	22.5	1	4	248	0.00	30.337 
00:35	34.1	34.1	34.1	62	22.5	2	6	248	0.00	30.337 
00:40	34.1	34.1	34.1	62	22.5	3	6	270	0.00	30.337 
00:45	34.1	34.1	34.1	62	22.5	2	4	248	0.00	30.342 
00:50	34.1	34.1	34.1	62	22.5	2	5	248	0.00	30.342 
00:55	34.1	34.1	34.1	62	22.5	2	7	248	0.00	30.342 
01:00	34.1	34.1	34.1	62	22.5	2	4	248	0.00	30.347 
01:05	34.1	34.1	34.1	62	22.5	1	4	248	0.00	30.347 
01:10	34.1	34.1	34.1	62	22.5	2	5	248	0.00	30.347 
01:15	34.1	34.1	34.1	62	22.5	1	3	248	0.00	30.349 
01:20	34.1	34.1	34.1	62	22.5	1	3	248	0.00	30.349 
01:25	34.0	34.0	34.0	62	22.4	1	5	270	0.00	30.349 
01:30	34.0	34.0	34.0	62	22.4	1	5	248	0.00	30.349 
01:35	34.0	34.0	34.0	62	22.4	1	3	248	0.00	30.349 
01:40	34.0	34.0	34.0	61	22.0	1	3	248	0.00	30.349 
01:45	34.0	34.0	34.0	61	22.0	1	3	248	0.00	30.346 
01:50	34.0	34.0	34.0	60	21.6	1	3	338	0.00	30.346 
01:55	34.0	34.0	34.0	60	21.6	2	4	248	0.00	30.346 
02:00	34.0	34.0	34.0	60	21.6	1	4	248	0.00	30.351 
02:05	34.0	34.0	34.0	60	21.6	2	6	248	0.00	30.351 
02:10	34.0	34.0	34.0	60	21.6	1	2	248	0.00	30.351 
02:15	34.0	34.0	34.0	61	22.0	0	2	248	0.00	30.357 
02:20	34.0	34.0	34.0	61	22.0	1	3	248	0.00	30.357 
02:25	34.0	34.0	34.0	61	22.0	1	3	248	0.00	30.357 
02:30	34.0	34.0	34.0	60	21.6	1	4	248	0.00	30.354 
02:35	34.0	34.0	34.0	61	22.0	1	3	248	0.00	30.354 
02:40	34.0	34.0	34.0	61	22.0	1	4	248	0.00	30.354 
02:45	34.0	34.0	34.0	61	22.0	1	3	248	0.00	30.354 
02:50	34.0	34.0	34.0	61	22.0	0	4	248	0.00	30.354 
02:55	33.8	33.8	33.8	62	22.2	0	3	248	0.00	30.354 
03:00	33.8	33.8	33.8	62	22.2	1	3	248	0.00	30.358 
03:05	33.8	33.8	33.8	62	22.2	0	3	248	0.00	30.358 
03:10	33.7	33.7	33.7	60	21.3	1	4	270	0.00	30.358 
03:15	33.8	33.8	33.8	59	21.0	1	3	270	0.00	30.361 
03:20	33.8	33.8	33.8	60	21.4	0	3	270	0.00	30.361 
03:25	33.8	33.8	33.8	59	21.0	0	2	270	0.00	30.361 
03:30	33.8	33.8	33.8	60	21.4	0	1	270	0.00	30.362 
03:35	33.8	33.8	33.8	60	21.4	0	1	270	0.00	30.362 
03:40	33.8	33.8	33.8	60	21.4	0	1	270	0.00	30.362 
03:45	33.7	33.7	33.7	60	21.3	0	3	270	0.00	30.359 
03:50	33.7	33.7	33.7	60	21.3	0	2	270	0.00	30.359 
03:55	33.5	33.5	33.5	61	21.5	0	2	270	0.00	30.359 
04:00	33.4	33.4	33.4	61	21.4	0	2	270	0.00	30.359 
04:05	33.2	33.2	33.2	62	21.6	1	4	270	0.00	30.359 
04:10	33.2	33.2	33.2	62	21.6	1	3	270	0.00	30.359 
04:15	33.1	33.1	33.1	62	21.5	0	3	270	0.00	30.355 
04:20	33.2	33.2	33.2	62	21.6	1	4	270	0.00	30.355 
04:25	33.2	33.2	33.2	63	22.0	1	3	270	0.00	30.355 
04:30	33.2	33.2	33.2	63	22.0	1	3	270	0.00	30.361 
04:35	33.4	33.4	33.4	63	22.2	0	2	270	0.00	30.361 
04:40	33.4	33.4	33.4	63	22.2	0	3	270	0.00	30.361 
04:45	33.4	33.4	33.4	64	22.6	1	5	248	0.00	30.365 
04:50	33.4	33.4	33.4	64	22.6	1	3	248	0.00	30.365 
04:55	33.4	33.4	33.4	64	22.6	1	3	248	0.00	30.365 
05:00	33.4	33.4	33.4	65	22.9	0	1	248	0.00	30.369 
05:05	33.4	33.4	33.4	65	22.9	0	2	248	0.00	30.369 
05:10	33.2	33.2	33.2	66	23.1	1	3	248	0.00	30.369 
05:15	33.2	33.2	33.2	67	23.4	1	3	248	0.00	30.381 
05:20	33.2	33.2	33.2	67	23.4	1	3	248	0.00	30.381 
05:25	33.2	33.2	33.2	67	23.4	0	3	248	0.00	30.381 
05:30	33.1	33.1	33.1	68	23.7	0	3	248	0.00	30.386 
05:35	33.1	33.1	33.1	68	23.7	1	4	248	0.00	30.386 
05:40	33.1	33.1	33.1	68	23.7	1	3	248	0.00	30.386 
05:45	33.1	33.1	33.1	68	23.7	0	3	248	0.00	30.395 
05:50	32.9	32.9	32.9	68	23.5	1	4	248	0.00	30.395 
05:55	32.9	32.9	32.9	68	23.5	1	3	248	0.00	30.395 
06:00	32.8	32.8	32.8	68	23.4	1	4	248	0.00	30.399 
06:05	32.8	32.8	32.8	69	23.8	1	4	248	0.00	30.399 
06:10	32.7	32.7	32.7	69	23.7	1	3	248	0.00	30.399 
06:15	32.7	32.7	32.7	69	23.7	0	2	248	0.00	30.400 
06:20	32.7	32.7	32.7	70	24.0	0	2	248	0.00	30.400 
06:25	32.5	32.5	32.5	70	23.8	0	2	248	0.00	30.400 
06:30	32.5	32.5	32.5	70	23.8	0	1	248	0.00	30.402 
06:35	32.5	32.5	32.5	70	23.8	0	3	248	0.00	30.402 
06:40	32.4	32.4	32.4	71	24.1	0	2	248	0.00	30.402 
06:45	32.4	32.4	32.4	71	24.1	1	3	248	0.00	30.409 
06:50	32.2	32.2	32.2	72	24.2	1	3	248	0.00	30.409 
06:55	32.2	32.2	32.2	72	24.2	1	3	248	0.00	30.409 
07:00	32.2	32.2	32.2	73	24.5	0	3	248	0.00	30.418 
07:05	32.1	32.1	32.1	73	24.4	1	3	248	0.00	30.418 
07:10	32.1	32.1	32.1	73	24.4	0	2	248	0.00	30.418 
07:15	32.1	32.1	32.1	74	24.8	0	2	248	0.00	30.422 
07:20	32.1	32.1	32.1	74	24.8	0	1	248	0.00	30.422 
07:25	32.1	32.1	32.1	75	25.1	0	1	248	0.00	30.422 
07:30	32.2	32.2	32.2	74	24.9	0	2	248	0.00	30.431 
07:35	32.2	32.2	32.2	74	24.9	0	2	248	0.00	30.431 
07:40	32.2	32.2	32.2	74	24.9	0	1	248	0.00	30.431 
07:45	32.2	32.2	32.2	74	24.9	0	1	248	0.00	30.437 
07:50	32.2	32.2	32.2	74	24.9	0	1	248	0.00	30.437 
07:55	32.2	32.2	32.2	73	24.5	1	2	248	0.00	30.437 
08:00	32.1	32.1	32.1	71	23.8	1	3	248	0.00	30.447 
08:05	32.1	32.1	32.1	71	23.8	0	2	248	0.00	30.447 
08:10	31.9	31.9	31.9	70	23.2	0	2	248	0.00	30.447 
08:15	31.8	31.8	31.8	70	23.2	0	2	248	0.00	30.458 
08:20	31.8	31.8	31.8	70	23.2	0	1	248	0.00	30.458 
08:25	31.8	31.8	31.8	69	22.8	0	2	248	0.00	30.458 
08:30	31.9	31.9	31.9	69	22.9	1	3	248	0.00	30.466 
08:35	31.8	31.8	31.8	68	22.5	1	3	315	0.00	30.466 
08:40	31.8	31.8	31.8	68	22.5	1	3	292	0.00	30.466 
08:45	31.8	31.8	31.8	67	22.1	1	2	292	0.00	30.470 
08:50	31.9	31.9	31.9	66	21.9	0	1	292	0.00	30.470 
08:55	32.1	32.1	32.1	65	21.7	1	2	292	0.00	30.470 
09:00	32.2	32.2	32.2	65	21.8	0	3	315	0.00	30.474 
09:05	32.4	32.4	32.4	64	21.6	1	2	315	0.00	30.474 
09:10	32.7	32.7	32.7	63	21.5	1	3	315	0.00	30.474 
09:15	32.7	32.7	32.7	62	21.1	1	4	338	0.00	30.477 
09:20	32.9	32.9	32.9	61	20.9	0	2	338	0.00	30.477 
09:25	33.4	33.4	33.4	61	21.4	1	2	338	0.00	30.477 
09:30	33.4	33.4	33.4	60	21.0	1	3	338	0.00	30.479 
09:35	33.1	33.1	33.1	59	20.4	2	4	315	0.00	30.479 
09:40	33.1	33.1	33.1	59	20.4	1	3	338	0.00	30.479 
09:45	33.1	33.1	33.1	58	20.0	1	3	338	0.00	30.483 
09:50	33.2	33.2	33.2	58	20.0	1	3	338	0.00	30.483 
09:55	33.4	33.4	33.4	58	20.2	1	3	338	0.00	30.483 
10:00	33.5	33.5	33.5	57	19.9	1	3	338	0.00	30.488 
10:05	33.5	33.5	33.5	57	19.9	1	3	338	0.00	30.488 
10:10	33.5	33.5	33.5	57	19.9	1	3	338	0.00	30.488 
10:15	33.8	33.8	33.8	57	20.2	1	4	338	0.00	30.492 
10:20	33.8	33.8	33.8	55	19.4	0	3	270	0.00	30.492 
10:25	33.7	33.7	33.7	53	18.4	1	5	338	0.00	30.492 
10:30	34.0	34.0	34.0	55	19.6	1	3	270	0.00	30.493 
10:35	34.1	34.1	34.1	54	19.2	1	2	270	0.00	30.493 
10:40	34.3	34.3	34.3	52	18.5	1	3	292	0.00	30.493 
10:45	34.6	34.6	34.6	53	19.2	0	2	292	0.00	30.495 
10:50	34.9	34.9	34.9	53	19.5	1	2	292	0.00	30.495 
10:55	35.0	35.0	35.0	52	19.2	1	3	292	0.00	30.495 
11:00	35.0	35.0	35.0	52	19.2	1	2	292	0.00	30.505 
11:05	35.3	35.3	35.3	53	19.9	0	3	292	0.00	30.505 
11:10	35.8	35.8	35.8	52	19.9	1	3	292	0.00	30.505 
11:15	36.0	36.0	36.0	51	19.6	0	2	292	0.00	30.504 
11:20	35.9	35.9	35.9	51	19.6	1	3	292	0.00	30.504 
11:25	36.0	36.0	36.0	50	19.2	1	3	292	0.00	30.504 
11:30	35.9	35.9	35.9	49	18.6	1	3	292	0.00	30.502 
11:35	35.8	35.8	35.8	51	19.5	1	3	248	0.00	30.502 
11:40	35.5	35.5	35.5	51	19.2	0	3	315	0.00	30.502 
11:45	35.3	35.3	35.3	52	19.5	0	1	315	0.00	30.495 
11:50	35.5	35.5	35.5	50	18.7	0	2	315	0.00	30.495 
11:55	35.8	35.8	35.8	50	19.0	1	3	248	0.00	30.495 
12:00	36.2	36.2	36.2	52	20.3	0	2	248	0.00	30.491 
12:05	36.5	36.5	36.5	51	20.1	0	1	248	0.00	30.491 
12:10	36.8	36.8	36.8	50	19.9	0	3	248	0.00	30.491 
12:15	37.0	37.0	37.0	50	20.1	1	5	22	0.00	30.480 
12:20	36.9	36.9	36.9	49	19.5	2	4	0	0.00	30.480 
12:25	36.5	36.5	36.5	50	19.6	1	3	0	0.00	30.480 
12:30	36.5	36.5	36.5	49	19.2	0	2	0	0.00	30.479 
12:35	36.3	36.3	36.3	50	19.5	2	5	0	0.00	30.479 
12:40	35.9	35.9	35.9	51	19.6	1	2	315	0.00	30.479 
12:45	35.8	35.8	35.8	51	19.5	0	2	315	0.00	30.476 
12:50	35.9	35.9	35.9	50	19.1	1	3	315	0.00	30.476 
12:55	36.0	36.0	36.0	49	18.7	0	2	315	0.00	30.476 
13:00	36.5	36.5	36.5	49	19.2	1	3	315	0.00	30.474 
13:05	36.6	36.6	36.6	50	19.7	1	3	315	0.00	30.474 
13:10	36.6	36.6	36.6	50	19.7	0	3	315	0.00	30.474 
13:15	37.0	37.0	37.0	51	20.6	0	4	315	0.00	30.475 
13:20	37.8	37.8	37.8	51	21.3	1	3	248	0.00	30.475 
13:25	38.2	38.2	38.2	49	20.7	1	3	248	0.00	30.475 
13:30	38.5	38.5	38.5	47	20.0	1	5	0	0.00	30.474 
13:35	38.8	38.8	38.8	50	21.8	1	5	248	0.00	30.474 
13:40	38.5	38.5	38.5	50	21.5	2	5	315	0.00	30.474 
13:45	37.6	37.6	37.6	49	20.2	1	6	315	0.00	30.480 
13:50	37.0	37.0	37.0	50	20.1	0	2	315	0.00	30.480 
13:55	36.8	36.8	36.8	50	19.9	1	3	315	0.00	30.480 
14:00	36.6	36.6	36.6	50	19.7	1	3	315	0.00	30.483 
14:05	36.5	36.5	36.5	51	20.1	0	3	0	0.00	30.483 
14:10	36.9	36.9	36.9	52	20.9	1	4	112	0.00	30.483 
14:15	37.3	37.3	37.3	51	20.9	0	2	112	0.00	30.479 
14:20	37.5	37.5	37.5	50	20.6	2	5	338	0.00	30.479 
14:25	37.2	37.2	37.2	49	19.8	1	3	338	0.00	30.479 
14:30	36.8	36.8	36.8	50	19.9	0	1	338	0.00	30.477 
14:35	36.5	36.5	36.5	50	19.6	0	2	338	0.00	30.477 
14:40	36.0	36.0	36.0	51	19.6	0	2	338	0.00	30.477 
14:45	35.9	35.9	35.9	50	19.1	0	2	338	0.00	30.478 
14:50	35.9	35.9	35.9	50	19.1	0	2	315	0.00	30.478 
14:55	36.0	36.0	36.0	50	19.2	0	2	315	0.00	30.478 
15:00	36.3	36.3	36.3	50	19.5	0	2	315	0.00	30.476 
15:05	36.6	36.6	36.6	50	19.7	0	3	270	0.00	30.476 
15:10	36.6	36.6	36.6	50	19.7	0	3	292	0.00	30.476 
15:15	36.3	36.3	36.3	51	19.9	0	1	292	0.00	30.481 
15:20	36.0	36.0	36.0	51	19.6	0	2	292	0.00	30.481 
15:25	35.9	35.9	35.9	51	19.6	1	3	292	0.00	30.481 
15:30	35.9	35.9	35.9	51	19.6	0	2	292	0.00	30.484 
15:35	36.0	36.0	36.0	52	20.1	0	2	292	0.00	30.484 
15:40	36.2	36.2	36.2	50	19.4	0	2	292	0.00	30.484 
15:45	36.2	36.2	36.2	51	19.8	0	1	292	0.00	30.485 
15:50	36.2	36.2	36.2	50	19.4	0	1	292	0.00	30.485 
15:55	36.2	36.2	36.2	50	19.4	0	2	292	0.00	30.485 
16:00	36.3	36.3	36.3	51	19.9	0	2	292	0.00	30.489 
16:05	36.2	36.2	36.2	50	19.4	0	1	292	0.00	30.489 
16:10	36.2	36.2	36.2	50	19.4	0	1	292	0.00	30.489 
16:15	36.0	36.0	36.0	50	19.2	0	2	292	0.00	30.490 
16:20	35.9	35.9	35.9	50	19.1	0	1	292	0.00	30.490 
16:25	35.8	35.8	35.8	50	19.0	0	0	---	0.00	30.490 
16:30	35.8	35.8	35.8	50	19.0	0	1	292	0.00	30.493 
16:35	35.6	35.6	35.6	50	18.8	0	1	292	0.00	30.493 
16:40	35.6	35.6	35.6	52	19.7	0	1	292	0.00	30.493 
16:45	35.6	35.6	35.6	53	20.2	0	2	292	0.00	30.493 
16:50	35.5	35.5	35.5	52	19.6	0	1	292	0.00	30.493 
16:55	35.2	35.2	35.2	53	19.8	0	1	292	0.00	30.493 
17:00	35.0	35.0	35.0	53	19.6	0	1	292	0.00	30.493 
17:05	34.7	34.7	34.7	53	19.3	0	1	292	0.00	30.493 
17:10	34.6	34.6	34.6	54	19.7	0	1	292	0.00	30.493 
17:15	34.4	34.4	34.4	54	19.5	0	0	---	0.00	30.496 
17:20	34.1	34.1	34.1	54	19.2	0	0	---	0.00	30.496 
17:25	34.0	34.0	34.0	54	19.1	0	0	---	0.00	30.496 
17:30	33.7	33.7	33.7	55	19.3	0	0	---	0.00	30.497 
17:35	33.2	33.2	33.2	55	18.8	0	0	---	0.00	30.497 
17:40	32.9	32.9	32.9	56	18.9	0	0	---	0.00	30.497 
17:45	32.7	32.7	32.7	57	19.2	0	0	---	0.00	30.504 
17:50	32.4	32.4	32.4	58	19.3	0	0	---	0.00	30.504 
17:55	32.1	32.1	32.1	59	19.4	0	0	---	0.00	30.504 
18:00	31.8	31.8	31.8	60	19.5	0	0	---	0.00	30.507 
18:05	31.5	31.5	31.5	60	19.2	0	0	---	0.00	30.507 
18:10	31.2	31.2	31.2	61	19.3	0	0	---	0.00	30.507 
18:15	31.0	31.0	31.0	61	19.1	0	0	---	0.00	30.514 
18:20	30.7	30.7	30.7	62	19.2	0	0	---	0.00	30.514 
18:25	30.4	30.4	30.4	62	19.0	0	0	---	0.00	30.514 
18:30	30.3	30.3	30.3	62	18.9	0	0	---	0.00	30.516 
18:35	30.0	30.0	30.0	63	19.0	0	0	---	0.00	30.516 
18:40	29.7	29.7	29.7	63	18.7	0	0	---	0.00	30.516 
18:45	29.5	29.5	29.5	65	19.2	0	0	---	0.00	30.518 
18:50	29.4	29.4	29.4	65	19.1	0	0	---	0.00	30.518 
18:55	29.1	29.1	29.1	66	19.2	0	0	---	0.00	30.518 
19:00	29.0	29.0	29.0	67	19.4	0	0	---	0.00	30.521 
19:05	28.8	28.8	28.8	67	19.2	0	0	---	0.00	30.521 
19:10	28.7	28.7	28.7	69	19.8	0	0	---	0.00	30.521 
19:15	28.7	28.7	28.7	69	19.8	0	0	---	0.00	30.528 
19:20	28.5	28.5	28.5	70	20.0	0	0	---	0.00	30.528 
19:25	28.4	28.4	28.4	71	20.2	0	0	---	0.00	30.528 
19:30	28.2	28.2	28.2	71	20.0	0	0	---	0.00	30.528 
19:35	28.1	28.1	28.1	71	19.9	0	0	---	0.00	30.528 
19:40	27.8	27.8	27.8	71	19.6	0	0	---	0.00	30.528 
19:45	27.6	27.6	27.6	72	19.8	0	0	---	0.00	30.533 
19:50	27.3	27.3	27.3	73	19.8	0	0	---	0.00	30.533 
19:55	27.2	27.2	27.2	74	20.0	0	0	---	0.00	30.533 
20:00	27.2	27.2	27.2	74	20.0	0	0	---	0.00	30.536 
20:05	27.2	27.2	27.2	74	20.0	0	0	---	0.00	30.536 
20:10	27.2	27.2	27.2	75	20.3	0	0	---	0.00	30.536 
20:15	27.0	27.0	27.0	74	19.8	0	0	---	0.00	30.542 
20:20	26.9	26.9	26.9	74	19.7	0	0	---	0.00	30.542 
20:25	26.7	26.7	26.7	74	19.5	0	0	---	0.00	30.542 
20:30	26.6	26.6	26.6	75	19.8	0	0	---	0.00	30.548 
20:35	26.4	26.4	26.4	75	19.6	0	0	---	0.00	30.548 
20:40	26.4	26.4	26.4	76	19.9	0	0	---	0.00	30.548 
20:45	26.3	26.3	26.3	76	19.8	0	0	---	0.00	30.550 
20:50	26.3	26.3	26.3	76	19.8	0	0	---	0.00	30.550 
20:55	26.1	26.1	26.1	76	19.6	0	0	---	0.00	30.550 
21:00	26.0	26.0	26.0	76	19.5	0	0	---	0.00	30.550 
21:05	25.8	25.8	25.8	77	19.6	0	0	---	0.00	30.550 
21:10	26.0	26.0	26.0	77	19.8	0	0	---	0.00	30.550 
21:15	25.8	25.8	25.8	78	19.9	0	0	---	0.00	30.550 
21:20	25.8	25.8	25.8	78	19.9	0	0	---	0.00	30.550 
21:25	25.8	25.8	25.8	78	19.9	0	0	---	0.00	30.550 
21:30	25.7	25.7	25.7	78	19.8	0	0	---	0.00	30.550 
21:35	25.6	25.6	25.6	79	20.0	0	0	---	0.00	30.550 
21:40	25.4	25.4	25.4	79	19.8	0	0	---	0.00	30.550 
21:45	25.4	25.4	25.4	80	20.1	0	0	---	0.00	30.550 
21:50	25.4	25.4	25.4	80	20.1	0	0	---	0.00	30.550 
21:55	25.4	25.4	25.4	80	20.1	0	0	---	0.00	30.550 
22:00	25.3	25.3	25.3	80	20.0	0	0	---	0.00	30.550 
22:05	25.1	25.1	25.1	80	19.8	0	0	---	0.00	30.550 
22:10	25.0	25.0	25.0	80	19.7	0	0	---	0.00	30.550 
22:15	25.0	25.0	25.0	81	20.0	0	0	---	0.00	30.551 
22:20	24.8	24.8	24.8	81	19.8	0	0	---	0.00	30.551 
22:25	24.8	24.8	24.8	81	19.8	0	0	---	0.00	30.551 
22:30	24.7	24.7	24.7	81	19.7	0	0	---	0.00	30.549 
22:35	24.5	24.5	24.5	81	19.5	0	0	---	0.00	30.549 
22:40	24.5	24.5	24.5	81	19.5	0	0	---	0.00	30.549 
22:45	24.4	24.4	24.4	82	19.7	0	0	---	0.00	30.551 
22:50	24.2	24.2	24.2	82	19.5	0	0	---	0.00	30.551 
22:55	24.1	24.1	24.1	82	19.4	0	0	---	0.00	30.551 
23:00	24.1	24.1	24.1	82	19.4	0	0	---	0.00	30.551 
23:05	23.9	23.9	23.9	82	19.2	0	0	---	0.00	30.551 
23:10	23.9	23.9	23.9	83	19.5	0	0	---	0.00	30.551 
23:15	23.8	23.8	23.8	83	19.4	0	0	---	0.00	30.550 
23:20	23.8	23.8	23.8	83	19.4	0	0	---	0.00	30.550 
23:25	23.6	23.6	23.6	84	19.5	0	0	---	0.00	30.550 
23:30	23.6	23.6	23.6	84	19.5	0	0	---	0.00	30.548 
23:35	23.5	23.5	23.5	84	19.4	0	0	---	0.00	30.548 
23:40	23.6	23.6	23.6	84	19.5	0	0	---	0.00	30.548 
23:45	23.6	23.6	23.6	84	19.5	0	0	---	0.00	30.545 
23:50	23.6	23.6	23.6	84	19.5	0	0	---	0.00	30.545 
23:55	23.6	23.6	23.6	85	19.8	0	0	---	0.00	30.545 

CoCoRaHS
IN-AL-39
A2 Web Hosting
Creative Commons License
GoDaddy
search engine by freefind advanced

loaded 2018-11-15 14:23:23 • last modified 2010-11-18 10:43:29
Privacy PolicyDisclaimer
• wx.awcolley.com is powered by PmWiki v.2002016 •
• all content (unless otherwise noted) © 2018 A W Colley